Haydock, United Kingdom
Current Conditions -  °F | °C
As of 9:20 AM on Friday 31 Oct 2014 (Local Time) from EGGP Reporting Station
Clear Clear  
Wind Chill: 61°   Ceiling: Unl
Heat Index: 61°   Visibility: 6mi
Dew Point: 57°   Wind: 14mph
Humidity: 88%   Direction: 160°SSE
Pressure: 29.88"   Gusts: NA
Location:  53.47°N, 2.68°W
Report Text: EGGP 310920Z 16012KT 9000 NSC 16/14 Q1012
Loading
Personal Weather Stations






























Interactive Weather Map
Tropical Storm Tracking
New forecast layout! Learn more

10-Day Weather Forecast

Advertisements
Track Severe Weather on mobile